createdAt,value
2023-02-18T00:01:39.441Z,45.90
2023-02-18T00:03:41.493Z,46.00
2023-02-18T00:05:43.168Z,46.00
2023-02-18T00:07:45.182Z,45.90
2023-02-18T00:09:46.790Z,45.90
2023-02-18T00:11:48.487Z,45.80
2023-02-18T00:13:51.943Z,46.00
2023-02-18T00:15:53.604Z,45.90
2023-02-18T00:17:55.359Z,46.00
2023-02-18T00:19:57.203Z,45.90
2023-02-18T00:21:59.006Z,45.80
2023-02-18T00:24:01.385Z,45.90
2023-02-18T00:26:12.290Z,45.80
2023-02-18T00:28:14.013Z,45.80
2023-02-18T00:30:15.842Z,45.90
2023-02-18T00:32:17.678Z,46.10
2023-02-18T00:34:19.438Z,45.90
2023-02-18T00:36:22.652Z,45.80
2023-02-18T00:38:24.293Z,45.90
2023-02-18T00:40:26.233Z,45.80
2023-02-18T00:42:27.848Z,45.90
2023-02-18T00:44:29.493Z,45.90
2023-02-18T00:46:31.283Z,45.90
2023-02-18T00:48:33.260Z,45.90
2023-02-18T00:50:34.958Z,45.80
2023-02-18T00:52:36.585Z,45.90
2023-02-18T00:54:38.211Z,45.90
2023-02-18T00:56:39.861Z,45.90
2023-02-18T00:58:41.481Z,45.90
2023-02-18T01:00:43.893Z,45.90
2023-02-18T01:02:45.544Z,45.80
2023-02-18T01:04:47.331Z,45.80
2023-02-18T01:06:49.055Z,45.80
2023-02-18T01:08:50.805Z,45.80
2023-02-18T01:10:55.077Z,45.80
2023-02-18T01:12:56.761Z,45.70
2023-02-18T01:14:59.057Z,45.80
2023-02-18T01:17:00.715Z,45.80
2023-02-18T01:19:02.361Z,45.80
2023-02-18T01:21:05.208Z,45.80
2023-02-18T01:23:06.857Z,45.80
2023-02-18T01:25:09.558Z,45.90
2023-02-18T01:27:11.231Z,45.80
2023-02-18T01:29:12.900Z,45.80
2023-02-18T01:31:17.278Z,45.80
2023-02-18T01:33:20.087Z,45.70
2023-02-18T01:35:21.803Z,45.80
2023-02-18T01:37:23.390Z,45.80
2023-02-18T01:39:25.037Z,45.80
2023-02-18T01:41:26.746Z,45.70
2023-02-18T01:43:28.376Z,45.80
2023-02-18T01:45:37.103Z,45.80
2023-02-18T01:47:38.712Z,45.80
2023-02-18T01:49:40.513Z,45.70
2023-02-18T01:51:50.259Z,45.70
2023-02-18T01:54:25.914Z,45.70
2023-02-18T01:56:32.966Z,45.80
2023-02-18T01:58:35.231Z,45.80
2023-02-18T02:00:37.011Z,45.70
2023-02-18T02:02:42.492Z,45.70
2023-02-18T02:04:44.486Z,45.70
2023-02-18T02:06:46.113Z,45.80
2023-02-18T02:08:50.334Z,45.70
2023-02-18T02:11:31.197Z,45.80
2023-02-18T02:13:40.377Z,45.70
2023-02-18T02:15:49.877Z,45.70
2023-02-18T02:18:23.800Z,45.70
2023-02-18T02:20:31.163Z,45.70
2023-02-18T02:23:08.691Z,45.70
2023-02-18T02:25:20.600Z,45.80
2023-02-18T02:27:24.790Z,45.80
2023-02-18T02:29:45.233Z,45.80
2023-02-18T02:31:55.753Z,45.80
2023-02-18T02:34:19.156Z,45.80
2023-02-18T02:36:36.783Z,45.80
2023-02-18T02:38:53.707Z,45.80
2023-02-18T02:41:12.208Z,45.80
2023-02-18T02:43:50.339Z,45.80
2023-02-18T02:46:25.926Z,45.80
2023-02-18T02:48:32.468Z,45.70
2023-02-18T02:50:47.028Z,45.70
2023-02-18T02:52:53.461Z,45.70
2023-02-18T02:54:55.143Z,45.70
2023-02-18T02:57:17.630Z,45.70
2023-02-18T02:59:26.420Z,45.70
2023-02-18T03:02:22.912Z,45.70
2023-02-18T03:05:03.876Z,45.80
2023-02-18T03:07:22.794Z,45.80
2023-02-18T03:09:40.355Z,45.80
2023-02-18T03:11:52.253Z,45.80
2023-02-18T03:14:07.932Z,45.80
2023-02-18T03:16:27.519Z,45.70
2023-02-18T03:18:38.302Z,45.80
2023-02-18T03:20:50.862Z,45.70
2023-02-18T03:22:54.326Z,45.70
2023-02-18T03:24:57.844Z,45.70
2023-02-18T03:27:21.297Z,45.70
2023-02-18T03:29:23.332Z,45.70
2023-02-18T03:31:28.920Z,45.60
2023-02-18T03:33:37.075Z,45.70
2023-02-18T03:35:39.186Z,45.60
2023-02-18T03:37:47.785Z,45.60
2023-02-18T03:39:54.908Z,45.70
2023-02-18T03:41:56.954Z,45.70
2023-02-18T03:44:04.913Z,45.70
2023-02-18T03:46:07.153Z,45.70
2023-02-18T03:48:09.389Z,45.70
2023-02-18T03:50:11.049Z,45.60
2023-02-18T03:52:12.695Z,45.70
2023-02-18T03:54:14.712Z,45.70
2023-02-18T03:56:16.665Z,45.70
2023-02-18T03:58:18.264Z,45.70
2023-02-18T04:00:20.440Z,45.70
2023-02-18T04:02:22.068Z,45.60
2023-02-18T04:04:23.852Z,45.60
2023-02-18T04:06:25.765Z,45.60
2023-02-18T04:08:27.420Z,45.60
2023-02-18T04:10:29.063Z,45.50
2023-02-18T04:12:30.712Z,45.50
2023-02-18T04:14:32.348Z,45.60
2023-02-18T04:16:34.170Z,45.60
2023-02-18T04:18:35.936Z,45.60
2023-02-18T04:20:37.969Z,45.60
2023-02-18T04:22:39.654Z,45.50
2023-02-18T04:24:41.420Z,45.40
2023-02-18T04:26:43.117Z,45.50
2023-02-18T04:28:44.741Z,45.40
2023-02-18T04:30:47.777Z,45.40
2023-02-18T04:32:49.813Z,45.50
2023-02-18T04:34:51.609Z,45.50
2023-02-18T04:36:53.344Z,45.50
2023-02-18T04:38:54.957Z,45.40
2023-02-18T04:40:56.623Z,45.40
2023-02-18T04:42:58.842Z,45.40
2023-02-18T04:45:00.609Z,45.40
2023-02-18T04:47:03.158Z,45.40
2023-02-18T04:49:04.858Z,45.40
2023-02-18T04:51:07.472Z,45.40
2023-02-18T04:53:09.118Z,45.40
2023-02-18T04:55:10.773Z,45.40
2023-02-18T04:57:12.787Z,45.40
2023-02-18T04:59:14.490Z,45.30
2023-02-18T05:01:16.135Z,45.40
2023-02-18T05:03:17.848Z,45.30
2023-02-18T05:05:19.645Z,45.30
2023-02-18T05:07:21.295Z,45.70
2023-02-18T05:09:23.348Z,45.00
2023-02-18T05:11:25.016Z,45.00
2023-02-18T05:13:26.721Z,45.00
2023-02-18T05:15:28.385Z,44.90
2023-02-18T05:17:30.061Z,44.90
2023-02-18T05:19:31.707Z,44.90
2023-02-18T05:21:34.206Z,44.80
2023-02-18T05:23:35.896Z,44.80
2023-02-18T05:25:37.526Z,44.80
2023-02-18T05:27:39.381Z,44.80
2023-02-18T05:29:41.123Z,44.80
2023-02-18T05:31:43.003Z,44.80
2023-02-18T05:33:44.664Z,44.70
2023-02-18T05:35:46.327Z,44.70
2023-02-18T05:37:47.940Z,44.70
2023-02-18T05:39:49.581Z,44.70
2023-02-18T05:41:51.216Z,44.70
2023-02-18T05:44:11.652Z,44.70
2023-02-18T05:46:13.334Z,44.70
2023-02-18T05:48:15.010Z,44.70
2023-02-18T05:50:16.969Z,44.70
2023-02-18T05:52:18.659Z,44.70
2023-02-18T05:54:20.416Z,44.70
2023-02-18T05:56:22.366Z,44.70
2023-02-18T05:58:23.953Z,44.70
2023-02-18T06:00:25.678Z,45.00
2023-02-18T06:02:27.362Z,45.10
2023-02-18T06:04:29.091Z,45.10
2023-02-18T06:06:30.741Z,45.00
2023-02-18T06:08:32.357Z,45.20
2023-02-18T06:10:33.966Z,45.10
2023-02-18T06:12:35.607Z,45.10
2023-02-18T06:14:38.188Z,45.20
2023-02-18T06:16:39.913Z,45.30
2023-02-18T06:18:41.510Z,45.30
2023-02-18T06:20:43.179Z,45.10
2023-02-18T06:22:45.114Z,45.10
2023-02-18T06:24:47.876Z,45.20
2023-02-18T06:26:49.533Z,45.30
2023-02-18T06:28:51.223Z,45.40
2023-02-18T06:30:52.858Z,45.20
2023-02-18T06:32:54.657Z,45.10
2023-02-18T06:34:56.273Z,45.30
2023-02-18T06:36:59.384Z,45.20
2023-02-18T06:39:06.117Z,45.30
2023-02-18T06:41:08.038Z,45.20
2023-02-18T06:43:09.686Z,45.10
2023-02-18T06:45:11.310Z,45.10
2023-02-18T06:47:12.974Z,44.90
2023-02-18T06:49:14.579Z,45.00
2023-02-18T06:51:16.403Z,45.10
2023-02-18T06:53:18.052Z,45.10
2023-02-18T06:55:19.850Z,44.90
2023-02-18T06:57:21.459Z,44.80
2023-02-18T06:59:23.085Z,44.80
2023-02-18T07:01:24.670Z,44.80
2023-02-18T07:03:26.455Z,44.90
2023-02-18T07:05:28.720Z,44.80
2023-02-18T07:07:30.395Z,44.80
2023-02-18T07:09:32.112Z,44.70
2023-02-18T07:11:33.782Z,44.60
2023-02-18T07:13:35.443Z,44.60
2023-02-18T07:15:37.069Z,44.60
2023-02-18T07:17:39.202Z,44.50
2023-02-18T07:19:40.922Z,44.50
2023-02-18T07:21:43.357Z,44.70
2023-02-18T07:23:44.938Z,44.70
2023-02-18T07:25:46.613Z,44.70
2023-02-18T07:27:48.419Z,44.80
2023-02-18T07:29:50.146Z,44.70
2023-02-18T07:31:51.859Z,44.80
2023-02-18T07:33:53.606Z,44.70
2023-02-18T07:35:56.822Z,44.70
2023-02-18T07:37:58.522Z,44.60
2023-02-18T07:40:00.171Z,45.20
2023-02-18T07:42:03.662Z,45.50
2023-02-18T07:44:05.611Z,45.40
2023-02-18T07:46:10.919Z,45.40
2023-02-18T07:48:13.493Z,45.40
2023-02-18T07:50:15.261Z,45.50
2023-02-18T07:52:16.916Z,45.40
2023-02-18T07:54:18.965Z,45.50
2023-02-18T07:56:20.608Z,45.80
2023-02-18T07:58:25.372Z,45.60
2023-02-18T08:00:27.056Z,45.50
2023-02-18T08:02:28.738Z,45.60
2023-02-18T08:04:30.483Z,45.50
2023-02-18T08:06:36.688Z,45.70
2023-02-18T08:08:38.387Z,45.80
2023-02-18T08:10:40.040Z,45.70
2023-02-18T08:12:41.639Z,45.60
2023-02-18T08:14:43.402Z,45.60
2023-02-18T08:16:45.095Z,45.50
2023-02-18T08:18:47.939Z,45.60
2023-02-18T08:20:51.657Z,45.60
2023-02-18T08:22:53.282Z,45.60
2023-02-18T08:24:56.393Z,45.50
2023-02-18T08:27:01.232Z,45.70
2023-02-18T08:29:03.402Z,45.70
2023-02-18T08:31:05.286Z,45.50
2023-02-18T08:33:06.975Z,45.40
2023-02-18T08:35:10.217Z,45.30
2023-02-18T08:37:11.937Z,45.40
2023-02-18T08:39:13.602Z,45.50
2023-02-18T08:41:15.840Z,45.60
2023-02-18T08:43:18.559Z,45.40
2023-02-18T08:45:20.271Z,45.40
2023-02-18T08:48:17.855Z,45.30
2023-02-18T08:49:43.705Z,44.10
2023-02-18T08:51:45.365Z,44.90
2023-02-18T08:53:47.466Z,45.40
2023-02-18T08:55:49.295Z,45.70
2023-02-18T08:57:50.948Z,46.70
2023-02-18T08:59:52.589Z,46.30
2023-02-18T09:01:54.389Z,45.90
2023-02-18T09:03:56.089Z,46.20
2023-02-18T09:05:59.177Z,46.50
2023-02-18T09:08:00.836Z,46.30
2023-02-18T09:10:02.902Z,46.20
2023-02-18T09:12:04.777Z,45.10
2023-02-18T09:14:06.384Z,44.40
2023-02-18T09:16:14.045Z,44.40
2023-02-18T09:18:15.640Z,44.40
2023-02-18T09:20:17.477Z,44.30
2023-02-18T09:22:19.552Z,45.20
2023-02-18T09:24:21.325Z,45.70
2023-02-18T09:26:23.399Z,45.50
2023-02-18T09:28:26.137Z,45.40
2023-02-18T09:30:27.826Z,45.10
2023-02-18T09:32:34.809Z,45.50
2023-02-18T09:34:37.235Z,45.50
2023-02-18T09:36:39.298Z,45.60
2023-02-18T09:38:40.937Z,45.60
2023-02-18T09:40:47.112Z,45.60
2023-02-18T09:42:48.962Z,45.60
2023-02-18T09:44:57.773Z,45.50
2023-02-18T09:47:18.067Z,45.30
2023-02-18T09:49:24.021Z,45.30
2023-02-18T09:51:25.697Z,45.20
2023-02-18T09:53:27.758Z,45.00
2023-02-18T09:55:33.632Z,45.10
2023-02-18T09:57:43.004Z,45.00
2023-02-18T09:59:45.508Z,45.30
2023-02-18T10:01:52.102Z,45.50
2023-02-18T10:03:55.822Z,45.80
2023-02-18T10:06:02.682Z,45.50
2023-02-18T10:08:07.854Z,45.40
2023-02-18T10:10:22.269Z,45.90
2023-02-18T10:12:26.228Z,45.50
2023-02-18T10:14:29.958Z,45.70
2023-02-18T10:16:31.885Z,45.50
2023-02-18T10:18:42.750Z,45.70
2023-02-18T10:20:44.623Z,45.70
2023-02-18T10:22:46.556Z,45.30
2023-02-18T10:24:52.306Z,45.00
2023-02-18T10:26:54.138Z,45.60
2023-02-18T10:28:56.703Z,45.80
2023-02-18T10:31:03.041Z,45.90
2023-02-18T10:33:29.213Z,45.90
2023-02-18T10:35:53.813Z,46.00
2023-02-18T10:38:26.188Z,46.00
2023-02-18T10:40:49.605Z,45.00
2023-02-18T10:42:59.423Z,45.50
2023-02-18T10:45:26.515Z,46.00
2023-02-18T10:48:10.779Z,45.80
2023-02-18T10:50:33.022Z,45.60
2023-02-18T10:52:43.528Z,46.10
2023-02-18T10:55:11.872Z,46.00
2023-02-18T10:57:24.040Z,46.00
2023-02-18T10:59:31.566Z,45.90
2023-02-18T11:01:33.276Z,46.00
2023-02-18T11:03:49.521Z,46.10
2023-02-18T11:05:55.693Z,46.00
2023-02-18T11:07:58.589Z,46.00
2023-02-18T11:10:14.954Z,46.10
2023-02-18T11:12:47.068Z,46.60
2023-02-18T11:15:09.992Z,46.80
2023-02-18T11:17:27.800Z,46.60
2023-02-18T11:19:38.022Z,47.40
2023-02-18T11:21:39.661Z,47.90
2023-02-18T11:23:51.172Z,47.90
2023-02-18T11:25:57.478Z,47.40
2023-02-18T11:28:19.402Z,47.90
2023-02-18T11:30:47.029Z,48.50
2023-02-18T11:32:51.993Z,48.50
2023-02-18T11:34:53.766Z,48.50
2023-02-18T11:36:56.129Z,48.50
2023-02-18T11:39:07.641Z,48.50
2023-02-18T11:41:13.217Z,48.20
2023-02-18T11:43:17.497Z,47.90
2023-02-18T11:45:30.478Z,47.90
2023-02-18T11:47:37.488Z,47.70
2023-02-18T11:49:40.346Z,47.80
2023-02-18T11:51:50.142Z,47.70
2023-02-18T11:54:04.446Z,47.50
2023-02-18T11:56:20.222Z,47.70
2023-02-18T11:58:22.211Z,47.80
2023-02-18T12:00:30.137Z,47.90
2023-02-18T12:02:38.243Z,48.10
2023-02-18T12:04:56.163Z,48.60
2023-02-18T12:07:22.366Z,47.90
2023-02-18T12:09:31.397Z,48.10
2023-02-18T12:11:44.608Z,48.10
2023-02-18T12:13:53.391Z,48.30
2023-02-18T12:16:39.687Z,48.30
2023-02-18T12:18:50.574Z,48.00
2023-02-18T12:21:01.013Z,48.00
2023-02-18T12:23:13.986Z,47.70
2023-02-18T12:25:37.522Z,44.50
2023-02-18T12:27:50.451Z,43.20
2023-02-18T12:30:10.786Z,42.80
2023-02-18T12:32:41.897Z,44.20
2023-02-18T12:35:21.049Z,45.10
2023-02-18T12:37:28.849Z,46.00
2023-02-18T12:39:50.284Z,46.70
2023-02-18T12:42:01.094Z,46.20
2023-02-18T12:44:24.659Z,46.70
2023-02-18T12:46:44.371Z,46.70
2023-02-18T12:48:57.981Z,47.70
2023-02-18T12:51:23.787Z,47.80
2023-02-18T12:53:43.470Z,47.50
2023-02-18T12:55:47.875Z,46.40
2023-02-18T12:58:25.459Z,47.30
2023-02-18T13:00:48.967Z,47.30
2023-02-18T13:03:11.916Z,46.80
2023-02-18T13:05:51.911Z,46.40
2023-02-18T13:08:02.349Z,45.90
2023-02-18T13:10:55.007Z,46.10
2023-02-18T13:13:13.158Z,46.10
2023-02-18T13:15:33.513Z,46.50
2023-02-18T13:17:37.993Z,46.90
2023-02-18T13:19:58.595Z,46.90
2023-02-18T13:22:06.406Z,46.80
2023-02-18T13:24:12.988Z,46.70
2023-02-18T13:26:17.326Z,46.70
2023-02-18T13:28:40.151Z,47.30
2023-02-18T13:30:50.442Z,47.80
2023-02-18T13:33:06.899Z,48.40
2023-02-18T13:35:20.231Z,48.50
2023-02-18T13:37:30.680Z,48.60
2023-02-18T13:39:33.088Z,48.50
2023-02-18T13:41:40.254Z,48.40
2023-02-18T13:43:41.902Z,48.60
2023-02-18T13:45:43.724Z,48.70
2023-02-18T13:47:47.158Z,48.80
2023-02-18T13:49:48.918Z,49.50
2023-02-18T13:51:54.133Z,49.70
2023-02-18T13:54:04.114Z,49.50
2023-02-18T13:56:23.026Z,49.80
2023-02-18T13:58:27.463Z,50.40
2023-02-18T14:00:39.922Z,49.70
2023-02-18T14:02:57.210Z,49.80
2023-02-18T14:05:08.368Z,49.60
2023-02-18T14:07:18.979Z,49.80
2023-02-18T14:09:23.718Z,49.80
2023-02-18T14:11:33.645Z,49.70
2023-02-18T14:13:55.900Z,49.70
2023-02-18T14:16:01.148Z,49.60
2023-02-18T14:18:14.877Z,49.70
2023-02-18T14:20:19.354Z,49.80
2023-02-18T14:22:28.816Z,49.80
2023-02-18T14:24:55.638Z,49.70
2023-02-18T14:27:14.535Z,49.80
2023-02-18T14:29:27.853Z,49.80
2023-02-18T14:31:37.651Z,49.90
2023-02-18T14:33:54.106Z,49.90
2023-02-18T14:36:23.330Z,50.00
2023-02-18T14:39:06.023Z,50.30
2023-02-18T14:41:36.674Z,50.30
2023-02-18T14:44:27.107Z,50.40
2023-02-18T14:46:49.242Z,49.90
2023-02-18T14:49:32.811Z,50.00
2023-02-18T14:51:35.720Z,49.80
2023-02-18T14:53:44.376Z,49.80
2023-02-18T14:55:49.774Z,49.60
2023-02-18T14:58:00.550Z,49.40
2023-02-18T15:00:02.335Z,49.20
2023-02-18T15:02:04.066Z,49.20
2023-02-18T15:04:05.965Z,48.90
2023-02-18T15:06:28.371Z,48.90
2023-02-18T15:08:39.069Z,48.70
2023-02-18T15:10:49.038Z,48.70
2023-02-18T15:12:50.803Z,48.60
2023-02-18T15:14:54.379Z,48.50
2023-02-18T15:16:57.426Z,48.50
2023-02-18T15:19:03.038Z,48.30
2023-02-18T15:21:07.366Z,48.20
2023-02-18T15:23:15.724Z,48.30
2023-02-18T15:25:17.420Z,48.60
2023-02-18T15:27:22.149Z,48.70
2023-02-18T15:29:29.825Z,48.20
2023-02-18T15:31:37.838Z,48.60
2023-02-18T15:33:44.485Z,48.80
2023-02-18T15:35:46.962Z,48.70
2023-02-18T15:37:54.189Z,47.70
2023-02-18T15:39:56.163Z,46.50
2023-02-18T15:42:08.154Z,45.40
2023-02-18T15:44:20.578Z,45.30
2023-02-18T15:46:26.203Z,43.90
2023-02-18T15:48:44.793Z,43.40
2023-02-18T15:50:52.682Z,43.20
2023-02-18T15:52:56.704Z,43.00
2023-02-18T15:55:11.366Z,42.50
2023-02-18T15:57:16.469Z,42.10
2023-02-18T15:59:18.027Z,42.00
2023-02-18T16:01:30.298Z,41.80
2023-02-18T16:03:45.196Z,41.50
2023-02-18T16:05:47.327Z,41.60
2023-02-18T16:07:57.316Z,41.70
2023-02-18T16:10:36.068Z,41.80
2023-02-18T16:12:39.497Z,41.40
2023-02-18T16:14:48.014Z,41.30
2023-02-18T16:17:07.808Z,41.10
2023-02-18T16:19:25.086Z,40.80
2023-02-18T16:21:38.815Z,40.80
2023-02-18T16:23:59.269Z,40.80
2023-02-18T16:26:18.812Z,41.40
2023-02-18T16:28:27.788Z,42.00
2023-02-18T16:30:32.906Z,42.50
2023-02-18T16:32:34.569Z,42.90
2023-02-18T16:34:36.259Z,43.30
2023-02-18T16:36:57.989Z,43.60
2023-02-18T16:39:01.861Z,43.60
2023-02-18T16:41:03.617Z,44.10
2023-02-18T16:43:16.177Z,44.40
2023-02-18T16:45:17.928Z,44.40
2023-02-18T16:47:20.150Z,44.50
2023-02-18T16:49:21.857Z,44.60
2023-02-18T16:51:29.235Z,44.70
2023-02-18T16:53:30.915Z,45.10
2023-02-18T16:55:32.613Z,45.40
2023-02-18T16:57:34.804Z,45.50
2023-02-18T16:59:36.457Z,46.10
2023-02-18T17:01:44.826Z,45.70
2023-02-18T17:03:48.842Z,45.50
2023-02-18T17:05:50.681Z,45.50
2023-02-18T17:07:52.470Z,45.40
2023-02-18T17:09:54.100Z,45.50
2023-02-18T17:11:56.314Z,45.50
2023-02-18T17:14:00.263Z,45.30
2023-02-18T17:16:01.856Z,45.20
2023-02-18T17:18:04.725Z,45.30
2023-02-18T17:20:06.758Z,45.70
2023-02-18T17:22:14.520Z,44.80
2023-02-18T17:24:17.506Z,44.70
2023-02-18T17:26:21.630Z,44.70
2023-02-18T17:28:23.414Z,44.70
2023-02-18T17:30:25.273Z,45.00
2023-02-18T17:32:27.093Z,44.80
2023-02-18T17:34:31.102Z,45.00
2023-02-18T17:36:32.962Z,45.00
2023-02-18T17:38:34.690Z,45.00
2023-02-18T17:40:36.329Z,45.00
2023-02-18T17:42:37.965Z,45.00
2023-02-18T17:44:40.425Z,45.00
2023-02-18T17:46:42.076Z,45.20
2023-02-18T17:48:45.332Z,45.30
2023-02-18T17:50:47.196Z,45.40
2023-02-18T17:52:49.086Z,45.50
2023-02-18T17:54:50.701Z,45.50
2023-02-18T17:56:52.429Z,45.60
2023-02-18T17:58:54.406Z,45.60
2023-02-18T18:00:58.080Z,45.40
2023-02-18T18:03:00.725Z,45.50
2023-02-18T18:05:02.448Z,45.40
2023-02-18T18:07:04.055Z,45.40
2023-02-18T18:09:05.704Z,45.70
2023-02-18T18:11:19.305Z,45.50
2023-02-18T18:13:26.822Z,45.40
2023-02-18T18:15:35.962Z,45.30
2023-02-18T18:17:37.644Z,45.60
2023-02-18T18:19:41.007Z,45.70
2023-02-18T18:21:42.678Z,45.70
2023-02-18T18:23:44.376Z,45.60
2023-02-18T18:25:51.113Z,45.40
2023-02-18T18:27:53.778Z,45.50
2023-02-18T18:29:55.470Z,45.40
2023-02-18T18:31:57.112Z,45.40
2023-02-18T18:33:58.811Z,45.40
2023-02-18T18:36:01.784Z,46.10
2023-02-18T18:38:03.471Z,45.20
2023-02-18T18:40:05.440Z,45.00
2023-02-18T18:42:08.989Z,45.80
2023-02-18T18:44:12.101Z,45.90
2023-02-18T18:46:13.915Z,45.10
2023-02-18T18:48:16.142Z,45.10
2023-02-18T18:50:19.049Z,45.10
2023-02-18T18:52:20.891Z,45.00
2023-02-18T18:54:22.489Z,45.60
2023-02-18T18:56:24.259Z,44.90
2023-02-18T18:58:26.654Z,45.00
2023-02-18T19:00:30.936Z,43.80
2023-02-18T19:02:32.616Z,44.00
2023-02-18T19:04:34.250Z,44.60
2023-02-18T19:06:35.906Z,45.00
2023-02-18T19:08:37.567Z,45.30
2023-02-18T19:10:42.511Z,45.20
2023-02-18T19:12:44.236Z,45.20
2023-02-18T19:14:45.903Z,45.20
2023-02-18T19:16:47.667Z,45.20
2023-02-18T19:18:49.364Z,43.60
2023-02-18T19:20:51.029Z,44.40
2023-02-18T19:22:53.035Z,44.70
2023-02-18T19:24:54.676Z,45.00
2023-02-18T19:26:56.354Z,45.70
2023-02-18T19:28:58.019Z,45.00
2023-02-18T19:30:59.834Z,45.00
2023-02-18T19:33:04.622Z,44.80
2023-02-18T19:35:06.552Z,44.50
2023-02-18T19:37:08.240Z,44.80
2023-02-18T19:39:09.892Z,44.80
2023-02-18T19:41:16.929Z,44.40
2023-02-18T19:43:18.627Z,44.80
2023-02-18T19:45:21.413Z,44.90
2023-02-18T19:47:25.373Z,44.90
2023-02-18T19:49:27.890Z,44.80
2023-02-18T19:51:29.587Z,44.80
2023-02-18T19:53:31.402Z,44.80
2023-02-18T19:55:33.089Z,44.80
2023-02-18T19:57:35.109Z,44.80
2023-02-18T19:59:36.704Z,44.80
2023-02-18T20:01:38.356Z,45.40
2023-02-18T20:03:40.033Z,44.80
2023-02-18T20:05:41.723Z,44.80
2023-02-18T20:07:46.068Z,44.90
2023-02-18T20:09:47.873Z,44.90
2023-02-18T20:11:49.556Z,45.00
2023-02-18T20:13:51.226Z,45.00
2023-02-18T20:15:52.831Z,45.00
2023-02-18T20:17:55.103Z,44.90
2023-02-18T20:19:56.843Z,45.10
2023-02-18T20:22:00.036Z,45.00
2023-02-18T20:24:01.733Z,45.00
2023-02-18T20:26:10.777Z,45.00
2023-02-18T20:28:12.438Z,45.00
2023-02-18T20:30:14.262Z,45.00
2023-02-18T20:32:18.684Z,45.00
2023-02-18T20:34:20.873Z,45.10
2023-02-18T20:36:22.850Z,45.00
2023-02-18T20:38:24.638Z,45.00
2023-02-18T20:40:27.116Z,45.20
2023-02-18T20:42:28.788Z,45.00
2023-02-18T20:44:30.757Z,45.10
2023-02-18T20:46:32.610Z,45.00
2023-02-18T20:48:35.948Z,45.00
2023-02-18T20:50:37.682Z,45.00
2023-02-18T20:52:39.707Z,45.00
2023-02-18T20:54:41.364Z,45.00
2023-02-18T20:56:44.133Z,45.00
2023-02-18T20:58:46.693Z,45.00
2023-02-18T21:01:02.338Z,45.60
2023-02-18T21:03:04.217Z,44.90
2023-02-18T21:05:06.236Z,44.90
2023-02-18T21:07:07.895Z,44.80
2023-02-18T21:09:09.562Z,44.80
2023-02-18T21:11:14.287Z,44.80
2023-02-18T21:13:16.018Z,44.80
2023-02-18T21:15:17.761Z,44.70
2023-02-18T21:17:19.384Z,44.70
2023-02-18T21:19:21.082Z,44.70
2023-02-18T21:21:23.710Z,44.70
2023-02-18T21:23:25.483Z,44.80
2023-02-18T21:25:27.096Z,44.80
2023-02-18T21:27:28.736Z,44.80
2023-02-18T21:29:30.483Z,44.80
2023-02-18T21:31:41.596Z,44.80
2023-02-18T21:33:43.377Z,44.70
2023-02-18T21:35:45.155Z,44.90
2023-02-18T21:37:46.815Z,44.80
2023-02-18T21:39:48.414Z,44.80
2023-02-18T21:41:50.043Z,44.70
2023-02-18T21:43:52.058Z,44.80
2023-02-18T21:45:53.752Z,44.80
2023-02-18T21:47:55.494Z,44.70
2023-02-18T21:49:57.122Z,44.60
2023-02-18T21:52:08.282Z,44.70
2023-02-18T21:54:10.044Z,44.70
2023-02-18T21:56:12.345Z,44.60
2023-02-18T21:58:13.968Z,44.60
2023-02-18T22:00:20.824Z,44.60
2023-02-18T22:02:26.107Z,44.70
2023-02-18T22:04:29.576Z,44.70
2023-02-18T22:06:31.288Z,44.70
2023-02-18T22:08:32.910Z,44.70
2023-02-18T22:10:34.529Z,44.70
2023-02-18T22:12:36.205Z,44.70
2023-02-18T22:14:38.792Z,44.60
2023-02-18T22:16:41.481Z,44.80
2023-02-18T22:18:43.162Z,44.70
2023-02-18T22:20:44.818Z,44.80
2023-02-18T22:22:46.473Z,44.70
2023-02-18T22:24:50.451Z,44.70
2023-02-18T22:26:52.084Z,44.70
2023-02-18T22:28:55.414Z,44.70
2023-02-18T22:30:57.034Z,44.70
2023-02-18T22:32:58.649Z,44.70
2023-02-18T22:35:00.383Z,44.70
2023-02-18T22:37:02.104Z,44.70
2023-02-18T22:39:04.635Z,44.80
2023-02-18T22:41:08.962Z,44.70
2023-02-18T22:43:10.796Z,44.80
2023-02-18T22:45:12.526Z,44.80
2023-02-18T22:47:14.357Z,44.70
2023-02-18T22:49:16.308Z,44.70
2023-02-18T22:51:19.955Z,44.80
2023-02-18T22:53:21.619Z,44.70
2023-02-18T22:55:23.304Z,44.80
2023-02-18T22:57:24.987Z,44.70
2023-02-18T22:59:26.707Z,44.80
2023-02-18T23:01:33.044Z,44.70
2023-02-18T23:03:35.209Z,44.80
2023-02-18T23:05:36.887Z,44.80
2023-02-18T23:07:38.977Z,45.10
2023-02-18T23:09:40.827Z,44.80
2023-02-18T23:11:42.844Z,44.80
2023-02-18T23:13:45.510Z,44.80
2023-02-18T23:15:56.580Z,44.80
2023-02-18T23:17:58.123Z,44.80
2023-02-18T23:19:59.775Z,44.80
2023-02-18T23:22:01.457Z,44.80
2023-02-18T23:24:03.211Z,44.80
2023-02-18T23:26:05.737Z,44.80
2023-02-18T23:28:07.368Z,44.80
2023-02-18T23:30:09.856Z,44.80
2023-02-18T23:32:11.716Z,44.90
2023-02-18T23:34:15.766Z,44.80
2023-02-18T23:36:20.894Z,44.80
2023-02-18T23:38:22.761Z,44.80
2023-02-18T23:40:24.422Z,44.80
2023-02-18T23:42:26.079Z,44.90
2023-02-18T23:44:27.922Z,44.80
2023-02-18T23:46:29.859Z,44.80
2023-02-18T23:48:33.752Z,44.80
2023-02-18T23:50:35.363Z,44.90
2023-02-18T23:52:37.388Z,44.80
2023-02-18T23:54:38.983Z,44.80
2023-02-18T23:56:40.956Z,44.90
2023-02-18T23:58:57.158Z,44.80
